createdAt,value
2017-08-14T00:00:05.102Z,16.5
2017-08-14T00:01:06.499Z,16.5
2017-08-14T00:02:07.898Z,16.6
2017-08-14T00:03:09.298Z,16.6
2017-08-14T00:04:10.700Z,16.5
2017-08-14T00:05:12.099Z,16.5
2017-08-14T00:06:13.500Z,16.5
2017-08-14T00:07:14.891Z,16.5
2017-08-14T00:08:16.286Z,16.3
2017-08-14T00:09:17.695Z,16.3
2017-08-14T00:10:19.093Z,16.3
2017-08-14T00:11:20.493Z,16.4
2017-08-14T00:12:21.891Z,16.4
2017-08-14T00:13:23.292Z,16.3
2017-08-14T00:14:24.738Z,16.4
2017-08-14T00:15:26.138Z,16.4
2017-08-14T00:16:27.536Z,16.3
2017-08-14T00:17:28.932Z,16.3
2017-08-14T00:18:30.329Z,16.3
2017-08-14T00:19:31.735Z,16.3
2017-08-14T00:20:33.130Z,16.3
2017-08-14T00:21:34.527Z,16.3
2017-08-14T00:22:35.921Z,16.3
2017-08-14T00:23:37.318Z,16.3
2017-08-14T00:24:38.717Z,16.3
2017-08-14T00:25:40.115Z,16.3
2017-08-14T00:26:41.513Z,16.3
2017-08-14T00:27:42.911Z,16.3
2017-08-14T00:28:44.309Z,16.3
2017-08-14T00:29:45.707Z,16.2
2017-08-14T00:30:47.101Z,16.2
2017-08-14T00:31:48.499Z,16.2
2017-08-14T00:32:49.893Z,16.2
2017-08-14T00:33:51.292Z,16.2
2017-08-14T00:34:52.692Z,16.2
2017-08-14T00:35:54.091Z,16.2
2017-08-14T00:36:55.484Z,16.2
2017-08-14T00:37:56.881Z,16.2
2017-08-14T00:38:58.285Z,16.2
2017-08-14T00:39:59.683Z,16.2
2017-08-14T00:41:01.079Z,16.1
2017-08-14T00:42:02.490Z,16.1
2017-08-14T00:43:03.887Z,16.0
2017-08-14T00:44:05.286Z,16.0
2017-08-14T00:45:06.684Z,16.1
2017-08-14T00:46:08.076Z,16.0
2017-08-14T00:47:09.474Z,16.0
2017-08-14T00:48:10.878Z,15.9
2017-08-14T00:49:12.276Z,16.0
2017-08-14T00:50:13.672Z,16.0
2017-08-14T00:51:15.067Z,15.9
2017-08-14T00:52:16.464Z,15.9
2017-08-14T00:53:17.858Z,15.9
2017-08-14T00:54:19.260Z,15.9
2017-08-14T00:55:20.656Z,16.0
2017-08-14T00:56:22.054Z,15.9
2017-08-14T00:57:23.448Z,15.9
2017-08-14T00:58:24.843Z,15.9
2017-08-14T00:59:26.244Z,16.0
2017-08-14T01:00:27.642Z,16.0
2017-08-14T01:01:29.047Z,15.9
2017-08-14T01:02:30.447Z,15.9
2017-08-14T01:03:31.845Z,15.9
2017-08-14T01:04:33.244Z,16.0
2017-08-14T01:05:34.639Z,15.9
2017-08-14T01:06:36.032Z,15.8
2017-08-14T01:07:37.430Z,15.9
2017-08-14T01:08:38.828Z,15.7
2017-08-14T01:09:40.229Z,15.7
2017-08-14T01:10:41.631Z,15.8
2017-08-14T01:11:43.031Z,15.8
2017-08-14T01:12:44.421Z,15.9
2017-08-14T01:13:45.821Z,15.8
2017-08-14T01:14:47.217Z,15.8
2017-08-14T01:15:48.614Z,15.9
2017-08-14T01:16:50.011Z,15.9
2017-08-14T01:17:51.411Z,15.9
2017-08-14T01:18:52.811Z,15.9
2017-08-14T01:19:54.208Z,15.9
2017-08-14T01:20:55.603Z,15.8
2017-08-14T01:21:57.000Z,15.8
2017-08-14T01:22:58.402Z,15.9
2017-08-14T01:23:59.804Z,16.0
2017-08-14T01:25:01.199Z,15.9
2017-08-14T01:26:02.596Z,15.9
2017-08-14T01:27:03.990Z,16.0
2017-08-14T01:28:05.383Z,16.1
2017-08-14T01:29:06.782Z,16.1
2017-08-14T01:30:08.180Z,16.0
2017-08-14T01:31:09.581Z,16.0
2017-08-14T01:32:10.977Z,16.0
2017-08-14T01:33:12.370Z,16.0
2017-08-14T01:34:13.766Z,16.1
2017-08-14T01:35:15.167Z,16.0
2017-08-14T01:36:16.565Z,16.0
2017-08-14T01:37:17.964Z,16.1
2017-08-14T01:38:19.369Z,16.1
2017-08-14T01:39:20.769Z,16.1
2017-08-14T01:40:22.164Z,16.0
2017-08-14T01:41:23.560Z,16.1
2017-08-14T01:42:24.957Z,16.0
2017-08-14T01:43:26.353Z,16.0
2017-08-14T01:44:27.753Z,16.0
2017-08-14T01:45:29.152Z,16.0
2017-08-14T01:46:30.552Z,16.0
2017-08-14T01:47:31.944Z,16.1
2017-08-14T01:48:33.341Z,16.1
2017-08-14T01:49:34.742Z,16.0
2017-08-14T01:50:36.141Z,16.0
2017-08-14T01:51:37.534Z,16.0
2017-08-14T01:52:38.932Z,16.0
2017-08-14T01:53:40.335Z,16.0
2017-08-14T01:54:41.731Z,16.0
2017-08-14T01:55:43.128Z,16.0
2017-08-14T01:56:44.524Z,16.0
2017-08-14T01:57:45.921Z,16.0
2017-08-14T01:58:47.318Z,15.9
2017-08-14T01:59:48.720Z,16.1
2017-08-14T02:00:50.116Z,16.0
2017-08-14T02:01:51.514Z,16.0
2017-08-14T02:02:52.906Z,16.0
2017-08-14T02:03:54.311Z,16.0
2017-08-14T02:04:55.711Z,16.0
2017-08-14T02:05:57.110Z,15.9
2017-08-14T02:06:58.509Z,16.0
2017-08-14T02:07:59.906Z,16.0
2017-08-14T02:09:01.305Z,16.1
2017-08-14T02:10:02.702Z,16.0
2017-08-14T02:11:04.097Z,16.0
2017-08-14T02:12:05.494Z,15.9
2017-08-14T02:13:06.892Z,15.9
2017-08-14T02:14:08.294Z,16.0
2017-08-14T02:15:09.696Z,16.0
2017-08-14T02:16:11.090Z,15.9
2017-08-14T02:17:12.486Z,15.9
2017-08-14T02:18:13.884Z,15.8
2017-08-14T02:19:15.283Z,15.8
2017-08-14T02:20:16.679Z,15.8
2017-08-14T02:21:18.077Z,15.9
2017-08-14T02:22:19.478Z,15.8
2017-08-14T02:23:20.872Z,15.9
2017-08-14T02:24:22.272Z,15.8
2017-08-14T02:25:23.670Z,15.9
2017-08-14T02:26:25.072Z,15.8
2017-08-14T02:27:26.469Z,15.8
2017-08-14T02:28:27.871Z,15.9
2017-08-14T02:29:29.275Z,15.9
2017-08-14T02:30:30.670Z,15.9
2017-08-14T02:31:32.065Z,15.9
2017-08-14T02:32:33.460Z,15.8
2017-08-14T02:33:34.859Z,15.9
2017-08-14T02:34:36.258Z,15.9
2017-08-14T02:35:37.653Z,15.9
2017-08-14T02:36:39.067Z,15.8
2017-08-14T02:37:40.503Z,15.8
2017-08-14T02:38:41.907Z,15.8
2017-08-14T02:39:43.302Z,15.7
2017-08-14T02:40:44.702Z,15.7
2017-08-14T02:41:46.104Z,15.7
2017-08-14T02:42:47.503Z,15.7
2017-08-14T02:43:48.903Z,15.7
2017-08-14T02:44:50.300Z,15.7
2017-08-14T02:45:51.698Z,15.7
2017-08-14T02:46:53.094Z,15.6
2017-08-14T02:47:54.492Z,15.7
2017-08-14T02:48:55.892Z,15.7
2017-08-14T02:49:57.290Z,15.7
2017-08-14T02:50:58.694Z,15.6
2017-08-14T02:52:00.085Z,15.7
2017-08-14T02:53:01.478Z,15.5
2017-08-14T02:54:02.876Z,15.7
2017-08-14T02:55:04.273Z,15.6
2017-08-14T02:56:05.697Z,15.6
2017-08-14T02:57:07.095Z,15.7
2017-08-14T02:58:08.496Z,15.7
2017-08-14T02:59:09.889Z,15.7
2017-08-14T03:00:11.286Z,15.7
2017-08-14T03:01:12.683Z,15.5
2017-08-14T03:02:14.076Z,15.6
2017-08-14T03:03:15.478Z,15.6
2017-08-14T03:04:16.884Z,15.6
2017-08-14T03:05:18.279Z,15.6
2017-08-14T03:06:19.677Z,15.6
2017-08-14T03:07:21.073Z,15.5
2017-08-14T03:08:22.468Z,15.5
2017-08-14T03:09:23.866Z,15.5
2017-08-14T03:10:25.263Z,15.5
2017-08-14T03:11:26.661Z,15.5
2017-08-14T03:12:28.060Z,15.4
2017-08-14T03:13:29.465Z,15.5
2017-08-14T03:14:30.858Z,15.5
2017-08-14T03:15:32.254Z,15.6
2017-08-14T03:16:33.652Z,15.5
2017-08-14T03:17:35.051Z,15.4
2017-08-14T03:18:36.452Z,15.4
2017-08-14T03:19:37.847Z,15.5
2017-08-14T03:20:39.245Z,15.4
2017-08-14T03:21:40.639Z,15.4
2017-08-14T03:22:42.036Z,15.4
2017-08-14T03:23:43.434Z,15.4
2017-08-14T03:24:44.835Z,15.4
2017-08-14T03:25:46.235Z,15.4
2017-08-14T03:26:47.633Z,15.3
2017-08-14T03:27:49.027Z,15.4
2017-08-14T03:28:50.422Z,15.4
2017-08-14T03:29:51.818Z,15.3
2017-08-14T03:30:53.214Z,15.3
2017-08-14T03:31:54.610Z,15.2
2017-08-14T03:32:56.009Z,15.3
2017-08-14T03:33:57.411Z,15.2
2017-08-14T03:34:58.810Z,15.2
2017-08-14T03:36:00.205Z,15.1
2017-08-14T03:37:01.605Z,15.2
2017-08-14T03:38:03.003Z,15.1
2017-08-14T03:39:04.401Z,15.1
2017-08-14T03:40:05.802Z,15.1
2017-08-14T03:41:07.200Z,15.1
2017-08-14T03:42:08.605Z,15.1
2017-08-14T03:43:09.992Z,15.1
2017-08-14T03:44:11.393Z,15.0
2017-08-14T03:45:12.791Z,15.1
2017-08-14T03:46:14.188Z,15.0
2017-08-14T03:47:15.586Z,15.2
2017-08-14T03:48:16.985Z,15.0
2017-08-14T03:49:18.389Z,15.1
2017-08-14T03:50:19.783Z,15.1
2017-08-14T03:51:21.177Z,15.1
2017-08-14T03:52:22.574Z,15.0
2017-08-14T03:53:23.972Z,15.0
2017-08-14T03:54:25.370Z,15.0
2017-08-14T03:55:26.766Z,15.1
2017-08-14T03:56:28.171Z,15.0
2017-08-14T03:57:29.565Z,15.0
2017-08-14T03:58:30.965Z,15.0
2017-08-14T03:59:32.363Z,14.9
2017-08-14T04:00:33.760Z,15.0
2017-08-14T04:01:35.157Z,15.0
2017-08-14T04:02:36.552Z,14.9
2017-08-14T04:03:37.950Z,14.9
2017-08-14T04:04:39.350Z,14.9
2017-08-14T04:05:40.749Z,14.9
2017-08-14T04:06:42.148Z,14.8
2017-08-14T04:07:43.547Z,14.9
2017-08-14T04:08:44.951Z,14.9
2017-08-14T04:09:46.351Z,14.9
2017-08-14T04:10:47.750Z,14.8
2017-08-14T04:11:49.149Z,14.7
2017-08-14T04:12:50.543Z,14.9
2017-08-14T04:13:51.944Z,14.8
2017-08-14T04:14:53.344Z,14.8
2017-08-14T04:15:54.748Z,14.8
2017-08-14T04:16:56.146Z,14.8
2017-08-14T04:17:58.085Z,14.8
2017-08-14T04:18:59.489Z,14.8
2017-08-14T04:20:00.893Z,14.7
2017-08-14T04:21:02.289Z,14.7
2017-08-14T04:22:03.685Z,14.7
2017-08-14T04:23:05.083Z,14.6
2017-08-14T04:24:06.486Z,14.7
2017-08-14T04:25:07.904Z,14.7
2017-08-14T04:26:09.280Z,14.7
2017-08-14T04:27:10.680Z,14.7
2017-08-14T04:28:12.077Z,14.7
2017-08-14T04:29:13.479Z,14.8
2017-08-14T04:30:14.879Z,14.8
2017-08-14T04:31:16.276Z,14.8
2017-08-14T04:32:17.710Z,14.8
2017-08-14T04:33:19.119Z,14.7
2017-08-14T04:34:20.521Z,14.8
2017-08-14T04:35:21.917Z,14.8
2017-08-14T04:36:23.318Z,14.8
2017-08-14T04:37:24.719Z,14.7
2017-08-14T04:38:26.120Z,14.7
2017-08-14T04:39:27.522Z,14.7
2017-08-14T04:40:28.921Z,14.7
2017-08-14T04:41:30.324Z,14.7
2017-08-14T04:42:31.719Z,14.7
2017-08-14T04:43:33.122Z,14.7
2017-08-14T04:44:34.526Z,14.8
2017-08-14T04:45:35.924Z,14.8
2017-08-14T04:46:37.320Z,14.8
2017-08-14T04:47:38.719Z,14.8
2017-08-14T04:48:40.118Z,14.8
2017-08-14T04:49:41.520Z,14.8
2017-08-14T04:50:42.919Z,14.8
2017-08-14T04:51:44.322Z,14.8
2017-08-14T04:52:45.726Z,14.9
2017-08-14T04:53:47.126Z,14.9
2017-08-14T04:54:48.526Z,14.9
2017-08-14T04:55:49.927Z,14.9
2017-08-14T04:56:51.328Z,14.9
2017-08-14T04:57:52.727Z,14.9
2017-08-14T04:58:54.139Z,15.0
2017-08-14T04:59:55.536Z,15.0
2017-08-14T05:00:56.934Z,15.0
2017-08-14T05:01:58.361Z,15.0
2017-08-14T05:02:59.772Z,15.0
2017-08-14T05:04:01.174Z,15.0
2017-08-14T05:05:02.575Z,15.0
2017-08-14T05:06:03.975Z,15.0
2017-08-14T05:07:05.380Z,15.0
2017-08-14T05:08:06.777Z,15.0
2017-08-14T05:09:08.180Z,15.1
2017-08-14T05:10:09.577Z,15.1
2017-08-14T05:11:10.978Z,15.1
2017-08-14T05:12:12.382Z,15.1
2017-08-14T05:13:13.786Z,15.1
2017-08-14T05:14:15.191Z,15.1
2017-08-14T05:15:16.594Z,15.0
2017-08-14T05:16:17.991Z,15.1
2017-08-14T05:17:19.390Z,15.0
2017-08-14T05:18:20.787Z,15.1
2017-08-14T05:19:22.188Z,15.1
2017-08-14T05:20:23.594Z,15.0
2017-08-14T05:21:24.997Z,15.0
2017-08-14T05:22:26.395Z,15.1
2017-08-14T05:23:27.794Z,15.1
2017-08-14T05:24:29.199Z,15.1
2017-08-14T05:25:30.604Z,15.1
2017-08-14T05:26:32.005Z,15.1
2017-08-14T05:27:33.406Z,15.1
2017-08-14T05:28:34.810Z,15.1
2017-08-14T05:29:36.221Z,15.1
2017-08-14T05:30:37.619Z,15.1
2017-08-14T05:31:39.016Z,15.1
2017-08-14T05:32:40.418Z,15.1
2017-08-14T05:33:41.823Z,15.1
2017-08-14T05:34:43.226Z,15.1
2017-08-14T05:35:44.625Z,15.1
2017-08-14T05:36:46.029Z,15.1
2017-08-14T05:37:47.430Z,15.1
2017-08-14T05:38:48.828Z,15.1
2017-08-14T05:39:50.234Z,15.2
2017-08-14T05:40:51.638Z,15.3
2017-08-14T05:41:53.041Z,15.2
2017-08-14T05:42:54.448Z,15.3
2017-08-14T05:43:55.848Z,15.3
2017-08-14T05:44:57.251Z,15.3
2017-08-14T05:45:58.652Z,15.4
2017-08-14T05:47:00.053Z,15.5
2017-08-14T05:48:01.456Z,15.6
2017-08-14T05:49:02.862Z,15.6
2017-08-14T05:50:04.293Z,15.7
2017-08-14T05:51:05.722Z,15.7
2017-08-14T05:52:07.102Z,15.8
2017-08-14T05:53:08.509Z,15.9
2017-08-14T05:54:09.914Z,15.9
2017-08-14T05:55:11.317Z,15.9
2017-08-14T05:56:12.717Z,16.0
2017-08-14T05:57:14.123Z,16.2
2017-08-14T05:58:15.524Z,16.2
2017-08-14T05:59:16.923Z,16.3
2017-08-14T06:00:18.328Z,16.4
2017-08-14T06:01:19.729Z,16.6
2017-08-14T06:02:21.136Z,16.6
2017-08-14T06:03:22.532Z,16.7
2017-08-14T06:04:23.936Z,16.8
2017-08-14T06:05:25.345Z,16.8
2017-08-14T06:06:26.745Z,16.9
2017-08-14T06:07:28.148Z,17.1
2017-08-14T06:08:29.550Z,17.1
2017-08-14T06:09:30.960Z,17.1
2017-08-14T06:10:32.364Z,17.1
2017-08-14T06:11:33.961Z,17.3
2017-08-14T06:12:35.364Z,17.4
2017-08-14T06:13:36.796Z,17.4
2017-08-14T06:14:38.193Z,17.4
2017-08-14T06:15:39.614Z,17.5
2017-08-14T06:16:41.014Z,17.5
2017-08-14T06:17:42.421Z,17.7
2017-08-14T06:18:43.829Z,17.7
2017-08-14T06:19:45.227Z,17.7
2017-08-14T06:20:46.627Z,17.6
2017-08-14T06:21:48.027Z,17.8
2017-08-14T06:22:49.434Z,17.8
2017-08-14T06:23:50.840Z,17.8
2017-08-14T06:24:52.245Z,17.9
2017-08-14T06:25:53.646Z,17.8
2017-08-14T06:26:55.051Z,17.9
2017-08-14T06:27:56.451Z,17.9
2017-08-14T06:28:57.853Z,17.9
2017-08-14T06:29:59.258Z,17.9
2017-08-14T06:31:00.663Z,17.8
2017-08-14T06:32:02.069Z,17.8
2017-08-14T06:33:03.478Z,17.8
2017-08-14T06:34:04.879Z,17.8
2017-08-14T06:35:06.285Z,17.9
2017-08-14T06:36:07.688Z,17.9
2017-08-14T06:37:09.091Z,17.9
2017-08-14T06:38:10.517Z,18.0
2017-08-14T06:39:11.903Z,18.0
2017-08-14T06:40:13.308Z,18.0
2017-08-14T06:41:14.710Z,18.1
2017-08-14T06:42:16.940Z,18.1
2017-08-14T06:43:18.306Z,18.2
2017-08-14T06:44:19.710Z,18.1
2017-08-14T06:45:21.114Z,18.1
2017-08-14T06:46:22.518Z,18.1
2017-08-14T06:47:23.918Z,18.1
2017-08-14T06:48:25.321Z,18.2
2017-08-14T06:49:26.722Z,18.3
2017-08-14T06:50:28.123Z,18.3
2017-08-14T06:51:29.524Z,18.2
2017-08-14T06:52:30.929Z,18.2
2017-08-14T06:53:32.330Z,18.3
2017-08-14T06:54:33.734Z,18.4
2017-08-14T06:55:35.130Z,18.4
2017-08-14T06:56:36.530Z,18.4
2017-08-14T06:57:37.931Z,18.4
2017-08-14T06:58:39.338Z,18.4
2017-08-14T06:59:40.740Z,18.5
2017-08-14T07:00:42.143Z,18.5
2017-08-14T07:01:43.543Z,18.5
2017-08-14T07:02:44.946Z,18.6
2017-08-14T07:03:46.352Z,18.6
2017-08-14T07:04:47.757Z,18.6
2017-08-14T07:05:49.162Z,18.7
2017-08-14T07:06:50.565Z,18.7
2017-08-14T07:07:51.972Z,18.8
2017-08-14T07:08:53.376Z,18.9
2017-08-14T07:09:54.789Z,18.9
2017-08-14T07:10:56.186Z,19.0
2017-08-14T07:11:57.588Z,19.0
2017-08-14T07:12:58.990Z,19.0
2017-08-14T07:14:00.398Z,19.0
2017-08-14T07:15:01.803Z,19.2
2017-08-14T07:16:03.212Z,19.2
2017-08-14T07:17:05.348Z,19.3
2017-08-14T07:18:06.748Z,19.2
2017-08-14T07:19:08.154Z,19.3
2017-08-14T07:20:09.562Z,19.4
2017-08-14T07:21:11.541Z,19.5
2017-08-14T07:22:12.949Z,19.5
2017-08-14T07:23:14.390Z,19.6
2017-08-14T07:24:15.793Z,19.7
2017-08-14T07:25:17.195Z,19.8
2017-08-14T07:26:18.608Z,19.8
2017-08-14T07:27:20.014Z,19.8
2017-08-14T07:28:21.435Z,19.9
2017-08-14T07:29:22.843Z,19.9
2017-08-14T07:30:24.247Z,20.0
2017-08-14T07:31:25.655Z,20.1
2017-08-14T07:32:27.052Z,20.2
2017-08-14T07:33:29.429Z,20.2
2017-08-14T07:34:30.829Z,20.2
2017-08-14T07:35:32.237Z,20.3
2017-08-14T07:36:33.643Z,20.2
2017-08-14T07:37:35.053Z,20.3
2017-08-14T07:38:36.459Z,20.4
2017-08-14T07:39:37.860Z,20.4
2017-08-14T07:40:39.264Z,20.5
2017-08-14T07:41:40.669Z,20.6
2017-08-14T07:42:42.069Z,20.6
2017-08-14T07:43:43.477Z,20.6
2017-08-14T07:44:44.885Z,20.7
2017-08-14T07:45:46.288Z,20.8
2017-08-14T07:46:47.691Z,20.8
2017-08-14T07:47:49.095Z,20.9
2017-08-14T07:48:50.500Z,20.9
2017-08-14T07:49:51.909Z,20.9
2017-08-14T07:50:53.312Z,20.9
2017-08-14T07:51:54.718Z,21.0
2017-08-14T07:52:56.122Z,20.9
2017-08-14T07:53:57.522Z,20.9
2017-08-14T07:54:58.928Z,21.0
2017-08-14T07:56:00.330Z,21.0
2017-08-14T07:57:01.735Z,21.1
2017-08-14T07:58:03.141Z,21.1
2017-08-14T07:59:04.563Z,21.2
2017-08-14T08:00:05.970Z,21.2
2017-08-14T08:01:07.373Z,21.3
2017-08-14T08:02:08.777Z,21.3
2017-08-14T08:03:10.180Z,21.4
2017-08-14T08:04:11.584Z,21.4
2017-08-14T08:05:12.993Z,21.5
2017-08-14T08:06:14.397Z,21.5
2017-08-14T08:07:15.805Z,21.7
2017-08-14T08:08:17.206Z,21.7
2017-08-14T08:09:18.609Z,21.8
2017-08-14T08:10:20.014Z,21.8
2017-08-14T08:11:21.432Z,22.0
2017-08-14T08:12:22.831Z,21.8
2017-08-14T08:13:24.243Z,21.9
2017-08-14T08:14:25.645Z,22.0
2017-08-14T08:15:27.046Z,22.1
2017-08-14T08:16:28.446Z,22.1
2017-08-14T08:17:29.851Z,22.1
2017-08-14T08:18:31.255Z,22.1
2017-08-14T08:19:32.666Z,22.2
2017-08-14T08:20:34.075Z,22.2
2017-08-14T08:21:35.478Z,22.3
2017-08-14T08:22:36.881Z,22.4
2017-08-14T08:23:38.286Z,22.4
2017-08-14T08:24:39.689Z,22.5
2017-08-14T08:25:41.096Z,22.5
2017-08-14T08:26:42.499Z,22.6
2017-08-14T08:27:43.907Z,22.7
2017-08-14T08:28:45.312Z,22.6
2017-08-14T08:29:46.716Z,22.7
2017-08-14T08:30:48.122Z,22.7
2017-08-14T08:31:49.527Z,22.8
2017-08-14T08:32:50.933Z,22.7
2017-08-14T08:33:52.340Z,22.8
2017-08-14T08:34:53.750Z,23.0
2017-08-14T08:35:55.151Z,23.0
2017-08-14T08:36:56.553Z,23.1
2017-08-14T08:37:57.959Z,23.1
2017-08-14T08:38:59.368Z,23.1
2017-08-14T08:40:00.773Z,23.2
2017-08-14T08:41:02.177Z,23.3
2017-08-14T08:42:03.583Z,23.4
2017-08-14T08:43:04.984Z,23.5
2017-08-14T08:44:06.393Z,23.5
2017-08-14T08:45:07.838Z,23.7
2017-08-14T08:46:09.240Z,23.7
2017-08-14T08:47:10.645Z,23.9
2017-08-14T08:48:12.059Z,23.8
2017-08-14T08:49:13.464Z,23.9
2017-08-14T08:50:14.871Z,23.7
2017-08-14T08:51:16.276Z,23.8
2017-08-14T08:52:17.709Z,23.8
2017-08-14T08:53:19.117Z,23.9
2017-08-14T08:54:20.517Z,23.9
2017-08-14T08:55:21.929Z,23.9
2017-08-14T08:56:23.382Z,23.9
2017-08-14T08:57:24.789Z,24.0
2017-08-14T08:58:26.193Z,23.9
2017-08-14T08:59:27.596Z,24.0
2017-08-14T09:00:29.002Z,24.0
2017-08-14T09:01:30.411Z,24.0
2017-08-14T09:02:31.877Z,24.2
2017-08-14T09:03:33.283Z,24.3
2017-08-14T09:04:34.690Z,24.5
2017-08-14T09:05:36.094Z,24.6
2017-08-14T09:06:37.512Z,24.7
2017-08-14T09:07:38.919Z,24.7
2017-08-14T09:08:40.503Z,24.8
2017-08-14T09:09:41.910Z,24.8
2017-08-14T09:10:43.318Z,24.9
2017-08-14T09:11:44.724Z,25.0
2017-08-14T09:12:46.132Z,25.0
2017-08-14T09:13:47.537Z,25.2
2017-08-14T09:14:48.945Z,25.3
2017-08-14T09:15:50.387Z,25.5
2017-08-14T09:16:51.792Z,25.6
2017-08-14T09:17:53.198Z,25.5
2017-08-14T09:18:54.605Z,25.7
2017-08-14T09:19:56.007Z,25.7
2017-08-14T09:20:57.415Z,25.7
2017-08-14T09:21:58.825Z,25.7
2017-08-14T09:23:00.231Z,25.8
2017-08-14T09:24:01.643Z,26.0
2017-08-14T09:25:03.051Z,26.1
2017-08-14T09:26:04.598Z,26.2
2017-08-14T09:27:06.009Z,26.2
2017-08-14T09:28:07.533Z,26.2
2017-08-14T09:29:08.935Z,26.3
2017-08-14T09:30:10.344Z,26.5
2017-08-14T09:31:11.750Z,26.6
2017-08-14T09:32:13.160Z,26.8
2017-08-14T09:33:14.563Z,26.8
2017-08-14T09:34:16.024Z,26.9
2017-08-14T09:35:17.428Z,26.9
2017-08-14T09:36:18.836Z,27.1
2017-08-14T09:37:20.239Z,27.2
2017-08-14T09:38:21.649Z,27.2
2017-08-14T09:39:23.058Z,27.1
2017-08-14T09:40:24.462Z,27.1
2017-08-14T09:41:25.865Z,27.1
2017-08-14T09:42:27.271Z,27.0
2017-08-14T09:43:28.681Z,26.9
2017-08-14T09:44:30.084Z,26.8
2017-08-14T09:45:31.493Z,26.9
2017-08-14T09:46:32.899Z,27.0
2017-08-14T09:47:34.304Z,27.1
2017-08-14T09:48:35.715Z,27.3
2017-08-14T09:49:37.123Z,27.3
2017-08-14T09:50:38.526Z,27.5
2017-08-14T09:51:39.932Z,27.6
2017-08-14T09:52:41.365Z,27.7
2017-08-14T09:53:42.776Z,27.7
2017-08-14T09:54:44.178Z,27.7
2017-08-14T09:55:45.584Z,27.8
2017-08-14T09:56:46.990Z,27.9
2017-08-14T09:57:48.974Z,28.0
2017-08-14T09:58:50.363Z,28.1
2017-08-14T09:59:51.770Z,28.1
2017-08-14T10:00:53.178Z,28.1
2017-08-14T10:01:54.582Z,28.1
2017-08-14T10:02:55.984Z,28.2
2017-08-14T10:03:57.398Z,28.3
2017-08-14T10:04:58.803Z,28.3
2017-08-14T10:06:00.212Z,28.3
2017-08-14T10:07:01.621Z,28.3
2017-08-14T10:08:03.035Z,28.5
2017-08-14T10:09:04.444Z,28.5
2017-08-14T10:10:05.956Z,28.6
2017-08-14T10:11:07.368Z,28.7
2017-08-14T10:12:08.777Z,28.8
2017-08-14T10:13:10.186Z,28.9
2017-08-14T10:14:12.328Z,28.8
2017-08-14T10:15:13.737Z,28.8
2017-08-14T10:16:15.145Z,28.9
2017-08-14T10:17:16.680Z,29.0
2017-08-14T10:18:18.066Z,29.1
2017-08-14T10:19:19.471Z,29.1
2017-08-14T10:20:20.880Z,29.2
2017-08-14T10:21:22.289Z,29.2
2017-08-14T10:22:23.703Z,29.2
2017-08-14T10:23:25.111Z,29.3
2017-08-14T10:24:26.524Z,29.3
2017-08-14T10:25:27.933Z,29.6
2017-08-14T10:26:29.345Z,29.5
2017-08-14T10:27:30.820Z,29.6
2017-08-14T10:28:32.230Z,29.7
2017-08-14T10:29:33.645Z,29.6
2017-08-14T10:30:35.058Z,29.6
2017-08-14T10:31:36.466Z,29.9
2017-08-14T10:32:37.874Z,29.9
2017-08-14T10:33:39.284Z,29.9
2017-08-14T10:34:40.694Z,30.1
2017-08-14T10:35:42.105Z,30.1
2017-08-14T10:36:43.517Z,30.3
2017-08-14T10:37:44.926Z,30.2
2017-08-14T10:38:46.334Z,30.2
2017-08-14T10:39:47.777Z,30.4
2017-08-14T10:40:49.182Z,30.2
2017-08-14T10:41:50.592Z,30.2
2017-08-14T10:42:52.005Z,30.3
2017-08-14T10:43:53.414Z,30.5
2017-08-14T10:44:54.825Z,30.7
2017-08-14T10:45:56.235Z,30.9
2017-08-14T10:46:57.645Z,30.9
2017-08-14T10:47:59.089Z,31.0
2017-08-14T10:49:00.501Z,30.7
2017-08-14T10:50:01.912Z,31.1
2017-08-14T10:51:03.382Z,31.3
2017-08-14T10:52:04.874Z,31.5
2017-08-14T10:53:06.343Z,31.7
2017-08-14T10:54:07.733Z,31.7
2017-08-14T10:55:09.178Z,31.7
2017-08-14T10:56:10.590Z,31.8
2017-08-14T10:57:12.062Z,31.9
2017-08-14T10:58:13.482Z,32.1
2017-08-14T10:59:14.894Z,32.3
2017-08-14T11:00:16.333Z,32.5
2017-08-14T11:01:17.753Z,32.6
2017-08-14T11:02:19.169Z,32.8
2017-08-14T11:03:20.585Z,33.0
2017-08-14T11:04:22.005Z,33.0
2017-08-14T11:05:23.420Z,33.1
2017-08-14T11:06:24.833Z,33.3
2017-08-14T11:07:26.279Z,33.4
2017-08-14T11:08:27.697Z,33.5
2017-08-14T11:09:29.113Z,33.8
2017-08-14T11:10:30.538Z,33.9
2017-08-14T11:11:31.948Z,34.0
2017-08-14T11:12:33.369Z,34.0
2017-08-14T11:13:34.872Z,34.3
2017-08-14T11:14:36.256Z,34.1
2017-08-14T11:15:37.681Z,33.9
2017-08-14T11:16:39.097Z,33.5
2017-08-14T11:17:40.515Z,33.7
2017-08-14T11:18:41.936Z,33.8
2017-08-14T11:19:43.366Z,33.9
2017-08-14T11:20:44.781Z,34.0
2017-08-14T11:21:46.199Z,34.1
2017-08-14T11:22:47.617Z,34.2
2017-08-14T11:23:49.031Z,34.3
2017-08-14T11:24:50.447Z,34.4
2017-08-14T11:25:51.867Z,34.4
2017-08-14T11:26:53.313Z,34.5
2017-08-14T11:27:54.727Z,34.6
2017-08-14T11:28:56.231Z,34.7
2017-08-14T11:29:57.645Z,34.7
2017-08-14T11:30:59.105Z,34.8
2017-08-14T11:32:00.528Z,34.9
2017-08-14T11:33:02.177Z,35.0
2017-08-14T11:34:03.593Z,34.8
2017-08-14T11:35:05.032Z,34.8
2017-08-14T11:36:06.471Z,34.9
2017-08-14T11:37:07.889Z,34.9
2017-08-14T11:38:09.299Z,34.8
2017-08-14T11:39:10.823Z,34.8
2017-08-14T11:40:12.246Z,34.9
2017-08-14T11:41:13.669Z,34.9
2017-08-14T11:42:15.121Z,35.1
2017-08-14T11:43:16.556Z,34.7
2017-08-14T11:44:17.994Z,34.5
2017-08-14T11:45:19.431Z,34.6
2017-08-14T11:46:20.859Z,34.1
2017-08-14T11:47:22.283Z,34.1
2017-08-14T11:48:23.704Z,34.2
2017-08-14T11:49:25.115Z,34.2
2017-08-14T11:50:26.527Z,34.5
2017-08-14T11:51:27.944Z,34.6
2017-08-14T11:52:29.358Z,34.7
2017-08-14T11:53:30.773Z,34.8
2017-08-14T11:54:32.189Z,34.8
2017-08-14T11:55:33.604Z,34.4
2017-08-14T11:56:35.019Z,34.0
2017-08-14T11:57:36.429Z,34.3
2017-08-14T11:58:37.841Z,33.9
2017-08-14T11:59:39.258Z,33.8
2017-08-14T12:00:40.672Z,33.5
2017-08-14T12:01:42.086Z,33.3
2017-08-14T12:02:43.497Z,32.9
2017-08-14T12:03:44.913Z,32.7
2017-08-14T12:04:46.324Z,32.5
2017-08-14T12:05:47.733Z,32.2
2017-08-14T12:06:49.146Z,32.1
2017-08-14T12:07:50.559Z,32.2
2017-08-14T12:08:51.975Z,32.4
2017-08-14T12:09:53.389Z,32.6
2017-08-14T12:10:54.802Z,32.6
2017-08-14T12:11:56.211Z,32.4
2017-08-14T12:12:57.625Z,32.2
2017-08-14T12:13:59.036Z,32.0
2017-08-14T12:15:00.449Z,31.6
2017-08-14T12:16:01.862Z,31.6
2017-08-14T12:17:03.277Z,31.8
2017-08-14T12:18:04.688Z,32.1
2017-08-14T12:19:06.101Z,32.3
2017-08-14T12:20:07.515Z,32.6
2017-08-14T12:21:08.926Z,32.7
2017-08-14T12:22:10.339Z,32.9
2017-08-14T12:23:11.760Z,33.3
2017-08-14T12:24:13.176Z,33.5
2017-08-14T12:25:14.591Z,33.8
2017-08-14T12:26:16.004Z,34.0
2017-08-14T12:27:17.417Z,34.2
2017-08-14T12:28:18.835Z,34.2
2017-08-14T12:29:20.243Z,34.3
2017-08-14T12:30:21.657Z,34.5
2017-08-14T12:31:23.072Z,34.6
2017-08-14T12:32:24.482Z,34.7
2017-08-14T12:33:25.896Z,34.7
2017-08-14T12:34:27.378Z,34.3
2017-08-14T12:35:28.792Z,34.3
2017-08-14T12:36:30.209Z,34.3
2017-08-14T12:37:31.622Z,34.2
2017-08-14T12:38:33.038Z,34.1
2017-08-14T12:39:34.454Z,33.8
2017-08-14T12:40:35.868Z,33.9
2017-08-14T12:41:37.278Z,33.8
2017-08-14T12:42:38.687Z,33.5
2017-08-14T12:43:40.104Z,33.4
2017-08-14T12:44:41.519Z,33.4
2017-08-14T12:45:42.958Z,33.4
2017-08-14T12:46:44.365Z,33.0
2017-08-14T12:47:45.773Z,32.7
2017-08-14T12:48:47.187Z,32.5
2017-08-14T12:49:48.609Z,32.8
2017-08-14T12:50:50.018Z,33.1
2017-08-14T12:51:51.435Z,33.4
2017-08-14T12:52:52.933Z,33.5
2017-08-14T12:53:54.352Z,33.9
2017-08-14T12:54:55.764Z,34.1
2017-08-14T12:55:57.176Z,34.3
2017-08-14T12:56:58.588Z,34.3
2017-08-14T12:58:00.650Z,34.2
2017-08-14T12:59:02.063Z,33.8
2017-08-14T13:00:03.476Z,33.6
2017-08-14T13:01:04.887Z,33.4
2017-08-14T13:02:06.301Z,33.6
2017-08-14T13:03:07.717Z,33.5
2017-08-14T13:04:09.131Z,33.3
2017-08-14T13:05:10.549Z,33.0
2017-08-14T13:06:11.958Z,32.8
2017-08-14T13:07:13.375Z,32.7
2017-08-14T13:08:14.802Z,32.7
2017-08-14T13:09:16.212Z,33.1
2017-08-14T13:10:17.612Z,33.3
2017-08-14T13:11:19.041Z,33.2
2017-08-14T13:12:20.449Z,33.1
2017-08-14T13:13:21.862Z,33.0
2017-08-14T13:14:23.278Z,33.4
2017-08-14T13:15:24.690Z,33.3
2017-08-14T13:16:26.150Z,33.2
2017-08-14T13:17:27.565Z,33.5
2017-08-14T13:18:28.978Z,33.9
2017-08-14T13:19:30.433Z,34.2
2017-08-14T13:20:31.848Z,34.5
2017-08-14T13:21:33.263Z,34.7
2017-08-14T13:22:34.673Z,35.0
2017-08-14T13:23:36.092Z,35.2
2017-08-14T13:24:37.505Z,35.3
2017-08-14T13:25:39.276Z,34.3
2017-08-14T13:26:40.819Z,33.8
2017-08-14T13:27:42.236Z,33.5
2017-08-14T13:28:43.665Z,33.2
2017-08-14T13:29:45.318Z,33.1
2017-08-14T13:30:46.719Z,33.0
2017-08-14T13:31:48.131Z,32.9
2017-08-14T13:32:49.541Z,33.1
2017-08-14T13:33:50.957Z,33.2
2017-08-14T13:34:52.373Z,33.0
2017-08-14T13:35:53.786Z,33.4
2017-08-14T13:36:55.194Z,33.5